createdAt,value
2023-02-08T00:00:15.268Z,103893.13
2023-02-08T00:02:18.354Z,103893.94
2023-02-08T00:04:22.836Z,103896.50
2023-02-08T00:06:25.831Z,103890.50
2023-02-08T00:08:28.991Z,103882.81
2023-02-08T00:10:32.525Z,103889.63
2023-02-08T00:12:35.581Z,103883.63
2023-02-08T00:14:38.614Z,103881.06
2023-02-08T00:16:41.653Z,103874.19
2023-02-08T00:18:44.773Z,103876.75
2023-02-08T00:20:49.240Z,103880.13
2023-02-08T00:22:53.439Z,103873.25
2023-02-08T00:24:56.580Z,103875.81
2023-02-08T00:26:59.603Z,103870.59
2023-02-08T00:29:02.705Z,103869.72
2023-02-08T00:31:06.681Z,103868.84
2023-02-08T00:33:11.016Z,103870.47
2023-02-08T00:35:14.213Z,103864.47
2023-02-08T00:37:19.163Z,103852.47
2023-02-08T00:39:24.462Z,103852.47
2023-02-08T00:41:28.250Z,103857.59
2023-02-08T00:43:31.294Z,103855.84
2023-02-08T00:45:34.877Z,103854.09
2023-02-08T00:47:37.973Z,103863.53
2023-02-08T00:49:40.994Z,103866.91
2023-02-08T00:51:44.044Z,103863.47
2023-02-08T00:53:49.287Z,103859.22
2023-02-08T00:55:52.852Z,103864.34
2023-02-08T00:57:55.966Z,103863.41
2023-02-08T00:59:58.991Z,103860.03
2023-02-08T01:02:02.125Z,103862.53
2023-02-08T01:04:05.511Z,103865.09
2023-02-08T01:06:11.714Z,103865.97
2023-02-08T01:08:15.114Z,103859.97
2023-02-08T01:10:19.534Z,103860.72
2023-02-08T01:12:22.592Z,103865.91
2023-02-08T01:14:26.095Z,103865.84
2023-02-08T01:16:31.910Z,103865.78
2023-02-08T01:18:36.609Z,103866.53
2023-02-08T01:20:39.825Z,103866.47
2023-02-08T01:22:43.042Z,103862.13
2023-02-08T01:24:46.113Z,103861.19
2023-02-08T01:26:50.517Z,103857.75
2023-02-08T01:28:55.495Z,103855.19
2023-02-08T01:30:59.331Z,103854.25
2023-02-08T01:33:02.344Z,103845.69
2023-02-08T01:35:05.905Z,103843.13
2023-02-08T01:37:08.886Z,103836.25
2023-02-08T01:39:12.762Z,103837.88
2023-02-08T01:41:18.988Z,103835.22
2023-02-08T01:43:26.452Z,103836.91
2023-02-08T01:45:31.869Z,103839.41
2023-02-08T01:47:35.034Z,103839.38
2023-02-08T01:49:39.080Z,103846.13
2023-02-08T01:51:46.772Z,103842.59
2023-02-08T01:53:52.070Z,103839.09
2023-02-08T01:55:58.587Z,103839.09
2023-02-08T01:58:04.866Z,103845.84
2023-02-08T02:00:15.198Z,103847.47
2023-02-08T02:02:22.698Z,103845.75
2023-02-08T02:04:27.384Z,103846.50
2023-02-08T02:06:35.001Z,103847.25
2023-02-08T02:08:39.271Z,103841.25
2023-02-08T02:10:43.526Z,103837.75
2023-02-08T02:12:47.452Z,103842.00
2023-02-08T02:14:50.871Z,103843.75
2023-02-08T02:16:55.302Z,103834.38
2023-02-08T02:18:58.595Z,103836.88
2023-02-08T02:21:41.040Z,103833.38
2023-02-08T02:24:19.436Z,103835.88
2023-02-08T02:27:03.924Z,103823.00
2023-02-08T02:29:28.314Z,103831.50
2023-02-08T02:31:57.634Z,103831.50
2023-02-08T02:34:08.165Z,103840.06
2023-02-08T02:36:22.289Z,103836.63
2023-02-08T02:38:35.492Z,103843.50
2023-02-08T02:40:50.997Z,103843.50
2023-02-08T02:43:21.588Z,103842.69
2023-02-08T02:45:32.181Z,103844.38
2023-02-08T02:47:42.360Z,103844.44
2023-02-08T02:49:51.882Z,103841.00
2023-02-08T02:51:59.794Z,103841.00
2023-02-08T02:54:09.583Z,103847.88
2023-02-08T02:56:16.885Z,103851.25
2023-02-08T02:58:25.933Z,103851.25
2023-02-08T03:00:31.006Z,103854.63
2023-02-08T03:02:34.039Z,103848.63
2023-02-08T03:04:54.212Z,103860.63
2023-02-08T03:07:07.078Z,103850.38
2023-02-08T03:09:26.759Z,103856.38
2023-02-08T03:11:34.041Z,103857.25
2023-02-08T03:13:52.675Z,103847.00
2023-02-08T03:16:04.409Z,103844.44
2023-02-08T03:18:22.487Z,103853.88
2023-02-08T03:20:31.854Z,103859.00
2023-02-08T03:22:44.424Z,103866.75
2023-02-08T03:24:55.259Z,103862.44
2023-02-08T03:27:04.798Z,103873.63
2023-02-08T03:29:15.771Z,103873.56
2023-02-08T03:31:25.926Z,103866.75
2023-02-08T03:33:36.264Z,103876.13
2023-02-08T03:35:46.196Z,103861.63
2023-02-08T03:37:55.165Z,103860.75
2023-02-08T03:40:05.238Z,103857.25
2023-02-08T03:42:16.172Z,103860.75
2023-02-08T03:44:24.365Z,103867.56
2023-02-08T03:46:30.821Z,103858.25
2023-02-08T03:48:37.401Z,103854.81
2023-02-08T03:50:45.288Z,103852.25
2023-02-08T03:52:49.822Z,103856.50
2023-02-08T03:54:56.586Z,103854.00
2023-02-08T03:57:07.846Z,103855.75
2023-02-08T03:59:15.983Z,103860.88
2023-02-08T04:01:24.662Z,103857.50
2023-02-08T04:03:31.557Z,103862.75
2023-02-08T04:05:34.833Z,103862.75
2023-02-08T04:07:39.377Z,103861.00
2023-02-08T04:09:42.489Z,103870.38
2023-02-08T04:11:45.516Z,103872.88
2023-02-08T04:13:48.658Z,103874.50
2023-02-08T04:15:51.697Z,103879.63
2023-02-08T04:17:55.052Z,103869.25
2023-02-08T04:19:58.134Z,103865.75
2023-02-08T04:22:01.208Z,103864.00
2023-02-08T04:24:05.837Z,103860.50
2023-02-08T04:26:09.997Z,103860.50
2023-02-08T04:28:13.095Z,103862.25
2023-02-08T04:30:16.230Z,103864.00
2023-02-08T04:32:19.363Z,103853.75
2023-02-08T04:34:22.502Z,103845.25
2023-02-08T04:36:25.617Z,103839.31
2023-02-08T04:38:28.712Z,103841.88
2023-02-08T04:40:33.371Z,103841.06
2023-02-08T04:42:36.525Z,103833.38
2023-02-08T04:44:39.622Z,103838.50
2023-02-08T04:46:42.877Z,103837.69
2023-02-08T04:48:46.075Z,103844.50
2023-02-08T04:50:49.224Z,103837.69
2023-02-08T04:52:52.280Z,103843.75
2023-02-08T04:54:55.319Z,103835.25
2023-02-08T04:56:59.718Z,103840.38
2023-02-08T04:59:03.859Z,103831.81
2023-02-08T05:01:08.328Z,103836.88
2023-02-08T05:03:11.622Z,103834.31
2023-02-08T05:05:14.775Z,103829.13
2023-02-08T05:07:17.793Z,103831.63
2023-02-08T05:09:20.817Z,103829.00
2023-02-08T05:11:25.051Z,103828.94
2023-02-08T05:13:29.563Z,103824.63
2023-02-08T05:15:32.546Z,103830.63
2023-02-08T05:17:35.601Z,103819.50
2023-02-08T05:19:38.636Z,103821.16
2023-02-08T05:21:41.777Z,103819.50
2023-02-08T05:23:46.755Z,103831.50
2023-02-08T05:25:49.957Z,103819.63
2023-02-08T05:27:53.092Z,103823.13
2023-02-08T05:29:59.004Z,103826.63
2023-02-08T05:32:02.357Z,103815.69
2023-02-08T05:34:05.525Z,103822.63
2023-02-08T05:36:09.072Z,103818.44
2023-02-08T05:38:12.305Z,103815.97
2023-02-08T05:40:15.441Z,103820.34
2023-02-08T05:42:18.492Z,103809.41
2023-02-08T05:44:21.637Z,103810.34
2023-02-08T05:46:26.232Z,103819.09
2023-02-08T05:48:30.838Z,103822.59
2023-02-08T05:50:34.439Z,103812.41
2023-02-08T05:52:37.633Z,103814.22
2023-02-08T05:54:40.743Z,103807.34
2023-02-08T05:56:43.843Z,103803.97
2023-02-08T05:58:46.869Z,103821.91
2023-02-08T06:00:49.925Z,103817.59
2023-02-08T06:02:54.441Z,103813.34
2023-02-08T06:04:57.484Z,103814.97
2023-02-08T06:07:00.471Z,103812.41
2023-02-08T06:09:03.484Z,103812.47
2023-02-08T06:11:07.303Z,103813.28
2023-02-08T06:13:10.369Z,103815.91
2023-02-08T06:15:13.529Z,103820.16
2023-02-08T06:17:16.532Z,103833.84
2023-02-08T06:19:21.164Z,103832.97
2023-02-08T06:21:24.656Z,103831.22
2023-02-08T06:23:27.773Z,103832.94
2023-02-08T06:25:30.775Z,103829.47
2023-02-08T06:27:33.824Z,103834.47
2023-02-08T06:29:36.907Z,103832.72
2023-02-08T06:31:40.193Z,103835.28
2023-02-08T06:33:43.725Z,103844.63
2023-02-08T06:35:48.829Z,103839.38
2023-02-08T06:37:51.868Z,103836.66
2023-02-08T06:39:54.868Z,103840.84
2023-02-08T06:41:58.672Z,103841.59
2023-02-08T06:44:02.407Z,103840.72
2023-02-08T06:46:08.563Z,103835.50
2023-02-08T06:48:11.663Z,103844.00
2023-02-08T06:50:15.485Z,103842.25
2023-02-08T06:52:20.646Z,103844.88
2023-02-08T06:54:23.690Z,103844.00
2023-02-08T06:56:26.819Z,103840.63
2023-02-08T06:58:29.881Z,103834.66
2023-02-08T07:00:32.922Z,103841.59
2023-02-08T07:02:36.060Z,103839.09
2023-02-08T07:04:39.294Z,103832.34
2023-02-08T07:06:42.399Z,103829.03
2023-02-08T07:08:48.020Z,103823.97
2023-02-08T07:10:51.045Z,103828.34
2023-02-08T07:12:54.060Z,103823.28
2023-02-08T07:14:57.099Z,103828.53
2023-02-08T07:17:00.449Z,103827.72
2023-02-08T07:19:03.546Z,103826.09
2023-02-08T07:21:07.013Z,103822.72
2023-02-08T07:23:11.571Z,103816.84
2023-02-08T07:25:16.002Z,103821.19
2023-02-08T07:27:19.058Z,103821.31
2023-02-08T07:29:22.223Z,103830.88
2023-02-08T07:31:25.260Z,103821.56
2023-02-08T07:33:28.362Z,103819.94
2023-02-08T07:35:31.421Z,103819.19
2023-02-08T07:37:34.464Z,103817.56
2023-02-08T07:39:37.575Z,103813.34
2023-02-08T07:41:44.699Z,103813.41
2023-02-08T07:43:47.975Z,103822.94
2023-02-08T07:45:51.172Z,103814.41
2023-02-08T07:47:54.327Z,103825.63
2023-02-08T07:49:57.401Z,103817.13
2023-02-08T07:52:00.816Z,103822.25
2023-02-08T07:54:03.949Z,103825.75
2023-02-08T07:56:08.161Z,103819.81
2023-02-08T07:58:12.673Z,103810.50
2023-02-08T08:00:17.674Z,103809.78
2023-02-08T08:02:20.735Z,103815.97
2023-02-08T08:04:23.800Z,103812.72
2023-02-08T08:06:27.075Z,103817.97
2023-02-08T08:08:30.165Z,103809.53
2023-02-08T08:10:33.166Z,103813.91
2023-02-08T08:12:36.206Z,103817.53
2023-02-08T08:14:40.610Z,103813.38
2023-02-08T08:16:43.843Z,103808.34
2023-02-08T08:18:47.417Z,103810.22
2023-02-08T08:20:50.394Z,103805.19
2023-02-08T08:22:53.632Z,103807.03
2023-02-08T08:24:58.192Z,103804.63
2023-02-08T08:27:01.524Z,103805.63
2023-02-08T08:29:05.003Z,103796.34
2023-02-08T08:31:12.925Z,103795.69
2023-02-08T08:33:16.076Z,103794.22
2023-02-08T08:35:19.216Z,103801.22
2023-02-08T08:37:22.237Z,103798.81
2023-02-08T08:39:27.251Z,103799.03
2023-02-08T08:41:30.238Z,103807.03
2023-02-08T08:43:33.281Z,103805.47
2023-02-08T08:45:36.607Z,103798.78
2023-02-08T08:47:44.546Z,103802.38
2023-02-08T08:49:48.764Z,103798.28
2023-02-08T08:51:51.977Z,103799.31
2023-02-08T08:53:54.985Z,103794.34
2023-02-08T08:55:58.010Z,103797.06
2023-02-08T08:58:01.019Z,103796.41
2023-02-08T09:00:05.468Z,103807.72
2023-02-08T09:02:08.551Z,103800.09
2023-02-08T09:04:13.184Z,103791.66
2023-02-08T09:06:16.228Z,103795.13
2023-02-08T09:08:19.665Z,103803.88
2023-02-08T09:10:22.680Z,103795.41
2023-02-08T09:12:25.750Z,103800.75
2023-02-08T09:14:28.972Z,103793.25
2023-02-08T09:16:32.117Z,103796.84
2023-02-08T09:18:35.413Z,103798.75
2023-02-08T09:20:44.667Z,103796.34
2023-02-08T09:22:53.896Z,103801.69
2023-02-08T09:24:57.800Z,103799.25
2023-02-08T09:27:02.009Z,103793.41
2023-02-08T09:29:06.641Z,103798.63
2023-02-08T09:31:10.842Z,103798.81
2023-02-08T09:33:13.880Z,103795.59
2023-02-08T09:35:16.909Z,103805.19
2023-02-08T09:37:21.501Z,103802.78
2023-02-08T09:39:26.514Z,103801.25
2023-02-08T09:41:46.807Z,103800.63
2023-02-08T09:43:59.040Z,103799.09
2023-02-08T09:46:06.962Z,103787.31
2023-02-08T09:48:19.450Z,103790.06
2023-02-08T09:50:29.592Z,103795.38
2023-02-08T09:52:40.040Z,103797.25
2023-02-08T09:54:48.049Z,103783.63
2023-02-08T09:56:52.087Z,103790.66
2023-02-08T09:58:57.630Z,103785.63
2023-02-08T10:01:03.118Z,103791.69
2023-02-08T10:03:16.911Z,103797.84
2023-02-08T10:05:23.526Z,103797.09
2023-02-08T10:07:27.548Z,103786.06
2023-02-08T10:09:31.966Z,103784.56
2023-02-08T10:11:49.078Z,103793.31
2023-02-08T10:14:05.036Z,103788.25
2023-02-08T10:16:19.496Z,103783.22
2023-02-08T10:18:35.323Z,103788.53
2023-02-08T10:20:57.405Z,103783.53
2023-02-08T10:23:09.700Z,103788.81
2023-02-08T10:25:23.301Z,103788.97
2023-02-08T10:27:39.934Z,103783.03
2023-02-08T10:30:11.570Z,103790.91
2023-02-08T10:32:35.285Z,103786.78
2023-02-08T10:34:45.910Z,103801.56
2023-02-08T10:36:48.881Z,103789.63
2023-02-08T10:38:54.939Z,103785.44
2023-02-08T10:41:01.165Z,103788.19
2023-02-08T10:43:20.671Z,103790.88
2023-02-08T10:45:28.745Z,103783.31
2023-02-08T10:47:44.216Z,103784.34
2023-02-08T10:49:55.221Z,103778.38
2023-02-08T10:51:58.344Z,103776.75
2023-02-08T10:54:01.437Z,103776.88
2023-02-08T10:56:07.037Z,103775.25
2023-02-08T10:58:18.030Z,103777.06
2023-02-08T11:00:24.576Z,103773.72
2023-02-08T11:02:30.786Z,103772.06
2023-02-08T11:04:33.915Z,103770.41
2023-02-08T11:06:37.513Z,103773.94
2023-02-08T11:08:55.841Z,103766.28
2023-02-08T11:11:04.160Z,103766.38
2023-02-08T11:13:19.119Z,103764.72
2023-02-08T11:15:24.431Z,103753.56
2023-02-08T11:17:30.645Z,103757.94
2023-02-08T11:19:39.181Z,103756.31
2023-02-08T11:21:45.334Z,103758.06
2023-02-08T11:23:52.485Z,103755.53
2023-02-08T11:25:56.918Z,103753.00
2023-02-08T11:28:01.000Z,103749.53
2023-02-08T11:30:23.484Z,103746.97
2023-02-08T11:32:26.774Z,103744.44
2023-02-08T11:34:32.780Z,103743.63
2023-02-08T11:36:37.053Z,103740.25
2023-02-08T11:38:44.012Z,103733.44
2023-02-08T11:40:47.436Z,103725.72
2023-02-08T11:42:51.303Z,103731.78
2023-02-08T11:44:55.696Z,103729.25
2023-02-08T11:47:02.377Z,103737.03
2023-02-08T11:49:05.791Z,103737.06
2023-02-08T11:51:09.888Z,103720.66
2023-02-08T11:53:27.701Z,103728.50
2023-02-08T11:55:33.432Z,103725.13
2023-02-08T11:57:36.573Z,103716.56
2023-02-08T11:59:39.950Z,103720.94
2023-02-08T12:01:43.981Z,103722.72
2023-02-08T12:03:51.656Z,103720.19
2023-02-08T12:06:12.370Z,103722.78
2023-02-08T12:08:25.020Z,103721.13
2023-02-08T12:11:01.188Z,103709.97
2023-02-08T12:13:30.107Z,103705.69
2023-02-08T12:15:57.056Z,103704.91
2023-02-08T12:18:13.245Z,103708.44
2023-02-08T12:20:36.856Z,103698.13
2023-02-08T12:22:43.277Z,103696.44
2023-02-08T12:24:51.365Z,103691.31
2023-02-08T12:27:07.551Z,103681.03
2023-02-08T12:29:23.454Z,103682.81
2023-02-08T12:31:37.922Z,103674.22
2023-02-08T12:33:48.549Z,103674.28
2023-02-08T12:36:10.553Z,103674.31
2023-02-08T12:38:41.020Z,103670.91
2023-02-08T12:40:53.858Z,103662.31
2023-02-08T12:43:08.776Z,103658.88
2023-02-08T12:45:40.429Z,103657.19
2023-02-08T12:48:04.129Z,103650.28
2023-02-08T12:50:20.696Z,103639.97
2023-02-08T12:52:35.321Z,103633.94
2023-02-08T12:54:42.594Z,103628.81
2023-02-08T12:57:00.336Z,103626.25
2023-02-08T12:59:13.467Z,103625.38
2023-02-08T13:01:20.508Z,103621.09
2023-02-08T13:03:36.394Z,103614.22
2023-02-08T13:05:53.532Z,103604.75
2023-02-08T13:08:07.965Z,103605.69
2023-02-08T13:10:20.751Z,103603.94
2023-02-08T13:12:28.062Z,103606.56
2023-02-08T13:14:35.548Z,103607.44
2023-02-08T13:16:44.661Z,103597.09
2023-02-08T13:18:51.658Z,103592.78
2023-02-08T13:20:59.343Z,103589.34
2023-02-08T13:23:13.399Z,103590.25
2023-02-08T13:25:30.918Z,103590.38
2023-02-08T13:27:33.978Z,103583.53
2023-02-08T13:29:37.516Z,103578.34
2023-02-08T13:31:44.211Z,103576.66
2023-02-08T13:34:01.295Z,103578.41
2023-02-08T13:36:05.998Z,103569.69
2023-02-08T13:38:23.563Z,103566.22
2023-02-08T13:40:30.547Z,103566.19
2023-02-08T13:42:39.640Z,103561.00
2023-02-08T13:44:42.798Z,103562.72
2023-02-08T13:46:47.935Z,103564.47
2023-02-08T13:48:53.620Z,103556.63
2023-02-08T13:50:57.308Z,103550.63
2023-02-08T13:53:00.894Z,103548.88
2023-02-08T13:55:55.859Z,103550.63
2023-02-08T13:58:01.740Z,103550.63
2023-02-08T14:00:23.139Z,103548.03
2023-02-08T14:02:30.635Z,103543.69
2023-02-08T14:04:36.958Z,103542.84
2023-02-08T14:06:50.888Z,103543.72
2023-02-08T14:08:59.180Z,103538.50
2023-02-08T14:11:12.166Z,103545.44
2023-02-08T14:13:29.386Z,103538.50
2023-02-08T14:15:38.054Z,103536.78
2023-02-08T14:17:44.844Z,103533.31
2023-02-08T14:19:58.762Z,103527.25
2023-02-08T14:22:04.188Z,103524.66
2023-02-08T14:24:09.849Z,103516.81
2023-02-08T14:26:24.281Z,103515.91
2023-02-08T14:28:33.492Z,103512.38
2023-02-08T14:30:38.531Z,103503.66
2023-02-08T14:32:44.063Z,103506.22
2023-02-08T14:34:47.707Z,103506.09
2023-02-08T14:37:04.875Z,103499.88
2023-02-08T14:39:24.666Z,103504.09
2023-02-08T14:41:49.922Z,103496.22
2023-02-08T14:43:54.466Z,103497.94
2023-02-08T14:45:58.025Z,103492.72
2023-02-08T14:48:17.868Z,103487.47
2023-02-08T14:50:25.269Z,103483.94
2023-02-08T14:52:29.441Z,103484.88
2023-02-08T14:54:38.666Z,103486.66
2023-02-08T14:56:51.503Z,103481.56
2023-02-08T14:59:01.189Z,103478.25
2023-02-08T15:01:08.872Z,103478.38
2023-02-08T15:03:16.111Z,103472.41
2023-02-08T15:05:23.712Z,103475.94
2023-02-08T15:07:33.732Z,103476.03
2023-02-08T15:09:40.318Z,103486.44
2023-02-08T15:11:43.771Z,103493.38
2023-02-08T15:13:50.626Z,103482.97
2023-02-08T15:15:57.150Z,103484.75
2023-02-08T15:18:02.314Z,103476.97
2023-02-08T15:20:08.497Z,103470.06
2023-02-08T15:22:19.317Z,103472.66
2023-02-08T15:24:24.169Z,103472.66
2023-02-08T15:26:28.042Z,103474.41
2023-02-08T15:28:34.865Z,103470.94
2023-02-08T15:30:40.464Z,103474.41
2023-02-08T15:32:44.978Z,103472.66
2023-02-08T15:34:54.360Z,103469.19
2023-02-08T15:36:58.256Z,103466.63
2023-02-08T15:39:04.813Z,103463.16
2023-02-08T15:41:10.959Z,103444.94
2023-02-08T15:43:14.707Z,103449.25
2023-02-08T15:45:24.538Z,103452.72
2023-02-08T15:47:29.558Z,103455.28
2023-02-08T15:49:37.808Z,103453.56
2023-02-08T15:51:41.278Z,103455.22
2023-02-08T15:53:46.723Z,103456.06
2023-02-08T15:55:53.403Z,103457.75
2023-02-08T15:57:59.972Z,103446.44
2023-02-08T16:00:05.296Z,103452.47
2023-02-08T16:02:23.811Z,103456.72
2023-02-08T16:04:27.439Z,103449.75
2023-02-08T16:06:36.785Z,103451.44
2023-02-08T16:08:44.179Z,103445.31
2023-02-08T16:10:50.388Z,103451.31
2023-02-08T16:12:54.646Z,103443.47
2023-02-08T16:14:58.283Z,103441.66
2023-02-08T16:17:01.453Z,103452.84
2023-02-08T16:19:06.572Z,103438.06
2023-02-08T16:21:28.622Z,103443.19
2023-02-08T16:23:34.202Z,103444.84
2023-02-08T16:25:44.455Z,103434.44
2023-02-08T16:27:49.443Z,103423.19
2023-02-08T16:29:52.697Z,103430.03
2023-02-08T16:32:07.916Z,103424.81
2023-02-08T16:34:17.294Z,103416.16
2023-02-08T16:36:24.187Z,103416.09
2023-02-08T16:38:27.557Z,103405.72
2023-02-08T16:40:48.748Z,103403.94
2023-02-08T16:42:51.856Z,103403.03
2023-02-08T16:45:16.931Z,103403.84
2023-02-08T16:47:27.859Z,103403.81
2023-02-08T16:49:30.968Z,103397.78
2023-02-08T16:51:35.749Z,103390.00
2023-02-08T16:53:42.201Z,103399.44
2023-02-08T16:55:47.141Z,103401.13
2023-02-08T16:57:52.542Z,103401.97
2023-02-08T16:59:56.711Z,103404.50
2023-02-08T17:01:59.964Z,103396.72
2023-02-08T17:04:03.109Z,103398.41
2023-02-08T17:06:06.999Z,103389.78
2023-02-08T17:08:15.906Z,103394.91
2023-02-08T17:10:27.555Z,103389.72
2023-02-08T17:12:33.102Z,103380.19
2023-02-08T17:14:36.151Z,103380.16
2023-02-08T17:16:39.944Z,103382.69
2023-02-08T17:18:43.033Z,103382.66
2023-02-08T17:20:47.072Z,103384.34
2023-02-08T17:22:51.063Z,103375.72
2023-02-08T17:24:54.195Z,103378.25
2023-02-08T17:26:57.338Z,103375.63
2023-02-08T17:29:01.809Z,103373.94
2023-02-08T17:31:05.218Z,103363.56
2023-02-08T17:33:11.438Z,103357.47
2023-02-08T17:35:17.303Z,103362.59
2023-02-08T17:37:21.586Z,103354.78
2023-02-08T17:39:26.306Z,103354.75
2023-02-08T17:41:29.462Z,103352.97
2023-02-08T17:43:32.993Z,103359.81
2023-02-08T17:45:41.310Z,103358.97
2023-02-08T17:47:45.013Z,103357.22
2023-02-08T17:49:48.305Z,103358.94
2023-02-08T17:51:51.481Z,103356.31
2023-02-08T17:53:55.281Z,103359.72
2023-02-08T17:55:58.302Z,103357.94
2023-02-08T17:58:01.329Z,103354.44
2023-02-08T18:00:05.069Z,103350.97
2023-02-08T18:02:16.533Z,103345.75
2023-02-08T18:04:19.579Z,103346.56
2023-02-08T18:06:23.836Z,103343.97
2023-02-08T18:08:27.494Z,103338.78
2023-02-08T18:10:30.546Z,103338.75
2023-02-08T18:12:35.553Z,103338.69
2023-02-08T18:14:39.201Z,103327.47
2023-02-08T18:16:42.321Z,103332.63
2023-02-08T18:18:47.119Z,103328.28
2023-02-08T18:20:50.210Z,103330.81
2023-02-08T18:22:53.544Z,103328.19
2023-02-08T18:24:56.760Z,103335.00
2023-02-08T18:27:00.105Z,103322.94
2023-02-08T18:29:05.029Z,103320.31
2023-02-08T18:31:10.772Z,103322.84
2023-02-08T18:33:14.101Z,103322.81
2023-02-08T18:35:18.704Z,103317.59
2023-02-08T18:37:22.330Z,103309.78
2023-02-08T18:39:25.595Z,103320.91
2023-02-08T18:41:30.832Z,103319.13
2023-02-08T18:43:34.122Z,103319.97
2023-02-08T18:45:37.363Z,103316.47
2023-02-08T18:47:40.557Z,103314.72
2023-02-08T18:49:43.724Z,103312.13
2023-02-08T18:51:48.934Z,103303.47
2023-02-08T18:53:54.906Z,103303.44
2023-02-08T18:56:00.513Z,103299.09
2023-02-08T18:58:20.339Z,103299.91
2023-02-08T19:00:24.345Z,103283.53
2023-02-08T19:02:28.215Z,103285.22
2023-02-08T19:04:31.496Z,103289.47
2023-02-08T19:06:37.225Z,103285.16
2023-02-08T19:08:42.583Z,103285.09
2023-02-08T19:10:45.832Z,103284.19
2023-02-08T19:12:48.908Z,103286.75
2023-02-08T19:14:52.004Z,103283.28
2023-02-08T19:16:55.847Z,103278.94
2023-02-08T19:19:00.381Z,103286.63
2023-02-08T19:21:07.640Z,103281.44
2023-02-08T19:23:10.758Z,103275.41
2023-02-08T19:25:15.350Z,103283.97
2023-02-08T19:27:18.410Z,103289.09
2023-02-08T19:29:22.741Z,103289.91
2023-02-08T19:31:28.301Z,103283.00
2023-02-08T19:33:31.521Z,103294.09
2023-02-08T19:35:38.397Z,103290.63
2023-02-08T19:37:42.431Z,103291.44
2023-02-08T19:39:45.683Z,103289.66
2023-02-08T19:41:51.117Z,103289.59
2023-02-08T19:43:54.251Z,103287.84
2023-02-08T19:45:57.403Z,103280.09
2023-02-08T19:48:00.527Z,103273.13
2023-02-08T19:50:03.719Z,103282.56
2023-02-08T19:52:06.778Z,103279.09
2023-02-08T19:54:17.080Z,103272.19
2023-02-08T19:56:20.725Z,103266.13
2023-02-08T19:58:25.508Z,103276.41
2023-02-08T20:00:28.555Z,103270.34
2023-02-08T20:02:31.690Z,103269.44
2023-02-08T20:04:34.845Z,103266.81
2023-02-08T20:06:38.766Z,103260.75
2023-02-08T20:08:41.905Z,103254.69
2023-02-08T20:10:46.899Z,103250.34
2023-02-08T20:12:50.082Z,103252.03
2023-02-08T20:14:54.715Z,103251.13
2023-02-08T20:16:57.874Z,103257.09
2023-02-08T20:19:01.539Z,103255.28
2023-02-08T20:21:05.294Z,103248.38
2023-02-08T20:23:22.016Z,103246.59
2023-02-08T20:25:25.825Z,103243.09
2023-02-08T20:27:32.154Z,103241.31
2023-02-08T20:29:35.283Z,103249.00
2023-02-08T20:31:42.550Z,103239.50
2023-02-08T20:33:46.312Z,103252.41
2023-02-08T20:35:49.383Z,103252.41
2023-02-08T20:37:52.410Z,103254.06
2023-02-08T20:39:55.615Z,103255.75
2023-02-08T20:41:58.967Z,103256.53
2023-02-08T20:44:02.899Z,103253.94
2023-02-08T20:46:07.246Z,103261.63
2023-02-08T20:48:11.674Z,103265.84
2023-02-08T20:50:19.256Z,103263.16
2023-02-08T20:52:23.919Z,103252.81
2023-02-08T20:54:27.005Z,103254.47
2023-02-08T20:56:32.760Z,103261.28
2023-02-08T20:58:36.044Z,103263.00
2023-02-08T21:00:42.642Z,103262.94
2023-02-08T21:02:46.715Z,103261.19
2023-02-08T21:04:51.353Z,103250.84
2023-02-08T21:06:54.428Z,103249.94
2023-02-08T21:08:58.597Z,103254.16
2023-02-08T21:11:02.647Z,103246.38
2023-02-08T21:13:05.715Z,103254.06
2023-02-08T21:15:10.121Z,103254.03
2023-02-08T21:17:13.224Z,103251.44
2023-02-08T21:19:17.340Z,103250.53
2023-02-08T21:21:22.148Z,103243.59
2023-02-08T21:23:25.271Z,103241.00
2023-02-08T21:25:28.434Z,103249.53
2023-02-08T21:27:31.543Z,103240.06
2023-02-08T21:29:34.707Z,103239.16
2023-02-08T21:31:38.223Z,103239.97
2023-02-08T21:33:42.312Z,103233.06
2023-02-08T21:35:45.514Z,103233.91
2023-02-08T21:37:49.967Z,103237.28
2023-02-08T21:39:52.980Z,103239.81
2023-02-08T21:41:56.399Z,103235.47
2023-02-08T21:44:02.269Z,103232.84
2023-02-08T21:46:06.451Z,103228.53
2023-02-08T21:48:09.543Z,103222.50
2023-02-08T21:50:30.354Z,103217.31
2023-02-08T21:52:51.318Z,103218.09
2023-02-08T21:54:55.914Z,103212.91
2023-02-08T21:57:00.701Z,103205.97
2023-02-08T21:59:03.983Z,103196.53
2023-02-08T22:01:07.218Z,103199.09
2023-02-08T22:03:10.413Z,103199.94
2023-02-08T22:05:13.575Z,103187.91
2023-02-08T22:07:17.378Z,103190.41
2023-02-08T22:09:21.951Z,103189.50
2023-02-08T22:11:26.374Z,103182.63
2023-02-08T22:13:29.466Z,103179.13
2023-02-08T22:15:34.938Z,103177.41
2023-02-08T22:17:38.127Z,103174.78
2023-02-08T22:19:42.262Z,103173.06
2023-02-08T22:21:45.331Z,103163.59
2023-02-08T22:23:48.476Z,103169.63
2023-02-08T22:25:51.546Z,103165.31
2023-02-08T22:27:56.210Z,103158.44
2023-02-08T22:29:59.295Z,103149.88
2023-02-08T22:32:02.441Z,103158.44
2023-02-08T22:34:05.889Z,103143.00
2023-02-08T22:36:10.867Z,103149.84
2023-02-08T22:38:13.989Z,103148.16
2023-02-08T22:40:17.478Z,103149.84
2023-02-08T22:42:20.524Z,103152.38
2023-02-08T22:44:24.966Z,103151.56
2023-02-08T22:46:28.112Z,103150.72
2023-02-08T22:48:31.201Z,103145.53
2023-02-08T22:50:34.290Z,103144.66
2023-02-08T22:52:37.391Z,103137.81
2023-02-08T22:54:40.467Z,103137.81
2023-02-08T22:56:43.478Z,103140.41
2023-02-08T22:58:46.623Z,103141.22
2023-02-08T23:00:51.269Z,103134.34
2023-02-08T23:02:54.403Z,103133.47
2023-02-08T23:04:57.568Z,103129.19
2023-02-08T23:07:01.170Z,103127.47
2023-02-08T23:09:06.070Z,103130.88
2023-02-08T23:11:09.265Z,103128.31
2023-02-08T23:13:12.893Z,103134.34
2023-02-08T23:15:15.937Z,103124.06
2023-02-08T23:17:20.362Z,103120.59
2023-02-08T23:19:23.379Z,103113.72
2023-02-08T23:21:26.438Z,103123.94
2023-02-08T23:23:29.430Z,103114.47
2023-02-08T23:25:32.519Z,103111.00
2023-02-08T23:27:35.562Z,103117.88
2023-02-08T23:29:38.643Z,103113.56
2023-02-08T23:31:42.029Z,103108.44
2023-02-08T23:33:46.470Z,103106.69
2023-02-08T23:35:49.499Z,103097.22
2023-02-08T23:37:52.587Z,103103.16
2023-02-08T23:39:55.620Z,103097.94
2023-02-08T23:41:58.688Z,103103.03
2023-02-08T23:44:01.699Z,103096.97
2023-02-08T23:46:07.582Z,103093.53
2023-02-08T23:48:10.610Z,103084.88
2023-02-08T23:50:15.222Z,103089.97
2023-02-08T23:52:18.690Z,103089.97
2023-02-08T23:54:21.735Z,103089.06
2023-02-08T23:56:26.503Z,103083.03
2023-02-08T23:58:29.560Z,103083.88
